Terminal Aerodrome Forecast
Issued by NWS Wilmington, NC

Home | Current Version | Previous Version | Text Only | Print | Product List | Glossary On
Versions: 1 2 3 4 5 6 7 8 9 10 11 12 13 14 15 16 17 18 19 20 21 22 23
000
FTUS42 KILM 180900 AAA
TAFLBT
TAF AMD
KLBT 180912Z 1809/1906 06005KT P6SM FEW004 SCT030 SCT070
      TEMPO 1811/1813 4SM BR
     FM181300 04005KT 6SM BR FEW006 BKN015
     FM181500 08006KT P6SM FEW025 SCT050=

USA.gov is the U.S. government's official web portal to all federal, state and local government web resources and services.